sensor_id;sensor_type;location;lat;lon;timestamp;temperature;humidity
27791;DHT22;15172;48.218;-1.758;2023-10-09T00:01:17;15.60;99.90
27791;DHT22;15172;48.218;-1.758;2023-10-09T00:03:44;15.50;99.90
27791;DHT22;15172;48.218;-1.758;2023-10-09T00:06:11;15.50;99.90
27791;DHT22;15172;48.218;-1.758;2023-10-09T00:08:39;15.60;99.90
27791;DHT22;15172;48.218;-1.758;2023-10-09T00:11:10;15.60;99.90
27791;DHT22;15172;48.218;-1.758;2023-10-09T00:13:47;15.60;99.90
27791;DHT22;15172;48.218;-1.758;2023-10-09T00:16:24;15.60;99.90
27791;DHT22;15172;48.218;-1.758;2023-10-09T00:19:08;15.60;99.90
27791;DHT22;15172;48.218;-1.758;2023-10-09T00:21:44;15.60;99.90
27791;DHT22;15172;48.218;-1.758;2023-10-09T00:24:10;15.60;99.90
27791;DHT22;15172;48.218;-1.758;2023-10-09T00:26:47;15.60;99.90
27791;DHT22;15172;48.218;-1.758;2023-10-09T00:29:14;15.70;99.90
27791;DHT22;15172;48.218;-1.758;2023-10-09T00:31:53;15.70;99.90
27791;DHT22;15172;48.218;-1.758;2023-10-09T00:34:39;15.70;99.90
27791;DHT22;15172;48.218;-1.758;2023-10-09T00:37:09;15.80;99.90
27791;DHT22;15172;48.218;-1.758;2023-10-09T00:39:52;15.70;99.90
27791;DHT22;15172;48.218;-1.758;2023-10-09T00:42:24;15.80;99.90
27791;DHT22;15172;48.218;-1.758;2023-10-09T00:45:01;15.80;99.90
27791;DHT22;15172;48.218;-1.758;2023-10-09T00:47:31;15.80;99.90
27791;DHT22;15172;48.218;-1.758;2023-10-09T00:50:02;15.80;99.90
27791;DHT22;15172;48.218;-1.758;2023-10-09T00:52:42;15.70;99.90
27791;DHT22;15172;48.218;-1.758;2023-10-09T00:55:20;15.70;99.90
27791;DHT22;15172;48.218;-1.758;2023-10-09T00:58:06;15.80;99.90
27791;DHT22;15172;48.218;-1.758;2023-10-09T01:00:38;15.70;99.90
27791;DHT22;15172;48.218;-1.758;2023-10-09T01:03:14;15.80;99.90
27791;DHT22;15172;48.218;-1.758;2023-10-09T01:05:56;15.80;99.90
27791;DHT22;15172;48.218;-1.758;2023-10-09T01:08:27;15.80;99.90
27791;DHT22;15172;48.218;-1.758;2023-10-09T01:10:58;15.70;99.90
27791;DHT22;15172;48.218;-1.758;2023-10-09T01:13:41;15.70;99.90
27791;DHT22;15172;48.218;-1.758;2023-10-09T01:16:16;15.70;99.90
27791;DHT22;15172;48.218;-1.758;2023-10-09T01:18:50;15.60;99.90
27791;DHT22;15172;48.218;-1.758;2023-10-09T01:21:17;15.60;99.90
27791;DHT22;15172;48.218;-1.758;2023-10-09T01:23:47;15.50;99.90
27791;DHT22;15172;48.218;-1.758;2023-10-09T01:26:31;15.50;99.90
27791;DHT22;15172;48.218;-1.758;2023-10-09T01:29:05;15.40;99.90
27791;DHT22;15172;48.218;-1.758;2023-10-09T01:31:36;15.40;99.90
27791;DHT22;15172;48.218;-1.758;2023-10-09T01:34:04;15.40;99.90
27791;DHT22;15172;48.218;-1.758;2023-10-09T01:36:36;15.40;99.90
27791;DHT22;15172;48.218;-1.758;2023-10-09T01:39:04;15.40;99.90
27791;DHT22;15172;48.218;-1.758;2023-10-09T01:41:49;15.30;99.90
27791;DHT22;15172;48.218;-1.758;2023-10-09T01:44:17;15.30;99.90
27791;DHT22;15172;48.218;-1.758;2023-10-09T01:46:44;15.30;99.90
27791;DHT22;15172;48.218;-1.758;2023-10-09T01:49:12;15.20;99.90
27791;DHT22;15172;48.218;-1.758;2023-10-09T01:51:55;15.30;99.90
27791;DHT22;15172;48.218;-1.758;2023-10-09T01:54:25;15.20;99.90
27791;DHT22;15172;48.218;-1.758;2023-10-09T01:57:03;15.20;99.90
27791;DHT22;15172;48.218;-1.758;2023-10-09T01:59:34;15.20;99.90
27791;DHT22;15172;48.218;-1.758;2023-10-09T02:02:04;15.20;99.90
27791;DHT22;15172;48.218;-1.758;2023-10-09T02:04:50;15.20;99.90
27791;DHT22;15172;48.218;-1.758;2023-10-09T02:07:16;15.20;99.90
27791;DHT22;15172;48.218;-1.758;2023-10-09T02:09:47;15.10;99.90
27791;DHT22;15172;48.218;-1.758;2023-10-09T02:12:13;15.10;99.90
27791;DHT22;15172;48.218;-1.758;2023-10-09T02:14:39;15.10;99.90
27791;DHT22;15172;48.218;-1.758;2023-10-09T02:17:07;15.10;99.90
27791;DHT22;15172;48.218;-1.758;2023-10-09T02:19:44;15.10;99.90
27791;DHT22;15172;48.218;-1.758;2023-10-09T02:22:14;15.10;99.90
27791;DHT22;15172;48.218;-1.758;2023-10-09T02:24:43;15.10;99.90
27791;DHT22;15172;48.218;-1.758;2023-10-09T02:27:17;15.10;99.90
27791;DHT22;15172;48.218;-1.758;2023-10-09T02:30:05;15.10;99.90
27791;DHT22;15172;48.218;-1.758;2023-10-09T02:32:44;15.10;99.90
27791;DHT22;15172;48.218;-1.758;2023-10-09T02:35:14;15.10;99.90
27791;DHT22;15172;48.218;-1.758;2023-10-09T02:38:02;15.20;99.90
27791;DHT22;15172;48.218;-1.758;2023-10-09T02:40:32;15.20;99.90
27791;DHT22;15172;48.218;-1.758;2023-10-09T02:43:05;15.20;99.90
27791;DHT22;15172;48.218;-1.758;2023-10-09T02:45:31;15.20;99.90
27791;DHT22;15172;48.218;-1.758;2023-10-09T02:48:01;15.10;99.90
27791;DHT22;15172;48.218;-1.758;2023-10-09T02:50:36;15.20;99.90
27791;DHT22;15172;48.218;-1.758;2023-10-09T02:53:04;15.20;99.90
27791;DHT22;15172;48.218;-1.758;2023-10-09T02:55:35;15.20;99.90
27791;DHT22;15172;48.218;-1.758;2023-10-09T02:58:04;15.20;99.90
27791;DHT22;15172;48.218;-1.758;2023-10-09T03:00:37;15.20;99.90
27791;DHT22;15172;48.218;-1.758;2023-10-09T03:03:05;15.10;99.90
27791;DHT22;15172;48.218;-1.758;2023-10-09T03:05:34;15.10;99.90
27791;DHT22;15172;48.218;-1.758;2023-10-09T03:07:59;15.10;99.90
27791;DHT22;15172;48.218;-1.758;2023-10-09T03:10:25;15.10;99.90
27791;DHT22;15172;48.218;-1.758;2023-10-09T03:12:52;15.10;99.90
27791;DHT22;15172;48.218;-1.758;2023-10-09T03:15:19;15.10;99.90
27791;DHT22;15172;48.218;-1.758;2023-10-09T03:17:46;15.10;99.90
27791;DHT22;15172;48.218;-1.758;2023-10-09T03:20:14;15.00;99.90
27791;DHT22;15172;48.218;-1.758;2023-10-09T03:22:43;15.00;99.90
27791;DHT22;15172;48.218;-1.758;2023-10-09T03:25:10;15.00;99.90
27791;DHT22;15172;48.218;-1.758;2023-10-09T03:27:46;14.90;99.90
27791;DHT22;15172;48.218;-1.758;2023-10-09T03:30:16;14.80;99.90
27791;DHT22;15172;48.218;-1.758;2023-10-09T03:32:48;14.80;99.90
27791;DHT22;15172;48.218;-1.758;2023-10-09T03:35:20;14.70;99.90
27791;DHT22;15172;48.218;-1.758;2023-10-09T03:37:57;14.60;99.90
27791;DHT22;15172;48.218;-1.758;2023-10-09T03:40:25;14.50;99.90
27791;DHT22;15172;48.218;-1.758;2023-10-09T03:42:51;14.40;99.90
27791;DHT22;15172;48.218;-1.758;2023-10-09T03:45:19;14.40;99.90
27791;DHT22;15172;48.218;-1.758;2023-10-09T03:47:54;14.30;99.90
27791;DHT22;15172;48.218;-1.758;2023-10-09T03:50:30;14.30;99.90
27791;DHT22;15172;48.218;-1.758;2023-10-09T03:53:02;14.20;99.90
27791;DHT22;15172;48.218;-1.758;2023-10-09T03:55:29;14.20;99.90
27791;DHT22;15172;48.218;-1.758;2023-10-09T03:57:56;14.20;99.90
27791;DHT22;15172;48.218;-1.758;2023-10-09T04:00:27;14.10;99.90
27791;DHT22;15172;48.218;-1.758;2023-10-09T04:02:57;14.10;99.90
27791;DHT22;15172;48.218;-1.758;2023-10-09T04:05:24;14.00;99.90
27791;DHT22;15172;48.218;-1.758;2023-10-09T04:07:50;14.00;99.90
27791;DHT22;15172;48.218;-1.758;2023-10-09T04:10:19;14.00;99.90
27791;DHT22;15172;48.218;-1.758;2023-10-09T04:13:03;14.00;99.90
27791;DHT22;15172;48.218;-1.758;2023-10-09T04:15:29;14.00;99.90
27791;DHT22;15172;48.218;-1.758;2023-10-09T04:17:56;13.90;99.90
27791;DHT22;15172;48.218;-1.758;2023-10-09T04:20:22;14.00;99.90
27791;DHT22;15172;48.218;-1.758;2023-10-09T04:22:48;14.00;99.90
27791;DHT22;15172;48.218;-1.758;2023-10-09T04:25:20;14.00;99.90
27791;DHT22;15172;48.218;-1.758;2023-10-09T04:27:57;14.00;99.90
27791;DHT22;15172;48.218;-1.758;2023-10-09T04:30:36;14.00;99.90
27791;DHT22;15172;48.218;-1.758;2023-10-09T04:33:06;14.00;99.90
27791;DHT22;15172;48.218;-1.758;2023-10-09T04:35:37;14.00;99.90
27791;DHT22;15172;48.218;-1.758;2023-10-09T04:38:03;14.10;99.90
27791;DHT22;15172;48.218;-1.758;2023-10-09T04:40:30;14.10;99.90
27791;DHT22;15172;48.218;-1.758;2023-10-09T04:43:17;14.20;99.90
27791;DHT22;15172;48.218;-1.758;2023-10-09T04:45:47;14.20;99.90
27791;DHT22;15172;48.218;-1.758;2023-10-09T04:48:33;14.30;99.90
27791;DHT22;15172;48.218;-1.758;2023-10-09T04:50:59;14.30;99.90
27791;DHT22;15172;48.218;-1.758;2023-10-09T04:53:44;14.30;99.90
27791;DHT22;15172;48.218;-1.758;2023-10-09T04:56:15;14.20;99.90
27791;DHT22;15172;48.218;-1.758;2023-10-09T04:58:42;14.10;99.90
27791;DHT22;15172;48.218;-1.758;2023-10-09T05:01:09;14.10;99.90
27791;DHT22;15172;48.218;-1.758;2023-10-09T05:03:39;14.20;99.90
27791;DHT22;15172;48.218;-1.758;2023-10-09T05:06:04;14.20;99.90
27791;DHT22;15172;48.218;-1.758;2023-10-09T05:08:49;14.30;99.90
27791;DHT22;15172;48.218;-1.758;2023-10-09T05:11:15;14.30;99.90
27791;DHT22;15172;48.218;-1.758;2023-10-09T05:14:00;14.30;99.90
27791;DHT22;15172;48.218;-1.758;2023-10-09T05:16:39;14.30;99.90
27791;DHT22;15172;48.218;-1.758;2023-10-09T05:19:24;14.30;99.90
27791;DHT22;15172;48.218;-1.758;2023-10-09T05:22:11;14.30;99.90
27791;DHT22;15172;48.218;-1.758;2023-10-09T05:24:56;14.30;99.90
27791;DHT22;15172;48.218;-1.758;2023-10-09T05:27:22;14.30;99.90
27791;DHT22;15172;48.218;-1.758;2023-10-09T05:30:07;14.20;99.90
27791;DHT22;15172;48.218;-1.758;2023-10-09T05:32:51;14.30;99.90
27791;DHT22;15172;48.218;-1.758;2023-10-09T05:35:21;14.30;99.90
27791;DHT22;15172;48.218;-1.758;2023-10-09T05:37:55;14.20;99.90
27791;DHT22;15172;48.218;-1.758;2023-10-09T05:40:28;14.20;99.90
27791;DHT22;15172;48.218;-1.758;2023-10-09T05:42:56;14.20;99.90
27791;DHT22;15172;48.218;-1.758;2023-10-09T05:45:26;14.20;99.90
27791;DHT22;15172;48.218;-1.758;2023-10-09T05:48:11;14.20;99.90
27791;DHT22;15172;48.218;-1.758;2023-10-09T05:50:39;14.20;99.90
27791;DHT22;15172;48.218;-1.758;2023-10-09T05:53:24;14.20;99.90
27791;DHT22;15172;48.218;-1.758;2023-10-09T05:56:09;14.20;99.90
27791;DHT22;15172;48.218;-1.758;2023-10-09T05:58:53;14.20;99.90
27791;DHT22;15172;48.218;-1.758;2023-10-09T06:01:39;14.20;99.90
27791;DHT22;15172;48.218;-1.758;2023-10-09T06:04:31;14.10;99.90
27791;DHT22;15172;48.218;-1.758;2023-10-09T06:07:14;14.10;99.90
27791;DHT22;15172;48.218;-1.758;2023-10-09T06:09:47;14.10;99.90
27791;DHT22;15172;48.218;-1.758;2023-10-09T06:12:19;14.00;99.90
27791;DHT22;15172;48.218;-1.758;2023-10-09T06:15:15;14.00;99.90
27791;DHT22;15172;48.218;-1.758;2023-10-09T06:18:16;14.10;99.90
27791;DHT22;15172;48.218;-1.758;2023-10-09T06:21:00;14.10;99.90
27791;DHT22;15172;48.218;-1.758;2023-10-09T06:23:44;14.20;99.90
27791;DHT22;15172;48.218;-1.758;2023-10-09T06:26:35;14.10;99.90
27791;DHT22;15172;48.218;-1.758;2023-10-09T06:29:01;14.10;99.90
27791;DHT22;15172;48.218;-1.758;2023-10-09T06:31:56;14.10;99.90
27791;DHT22;15172;48.218;-1.758;2023-10-09T06:34:28;14.00;99.90
27791;DHT22;15172;48.218;-1.758;2023-10-09T06:37:01;14.10;99.90
27791;DHT22;15172;48.218;-1.758;2023-10-09T06:39:43;14.10;99.90
27791;DHT22;15172;48.218;-1.758;2023-10-09T06:42:28;14.10;99.90
27791;DHT22;15172;48.218;-1.758;2023-10-09T06:45:14;14.20;99.90
27791;DHT22;15172;48.218;-1.758;2023-10-09T06:47:49;14.20;99.90
27791;DHT22;15172;48.218;-1.758;2023-10-09T06:50:24;14.20;99.90
27791;DHT22;15172;48.218;-1.758;2023-10-09T06:52:51;14.20;99.90
27791;DHT22;15172;48.218;-1.758;2023-10-09T06:55:43;14.30;99.90
27791;DHT22;15172;48.218;-1.758;2023-10-09T06:58:26;14.30;99.90
27791;DHT22;15172;48.218;-1.758;2023-10-09T07:00:53;14.40;99.90
27791;DHT22;15172;48.218;-1.758;2023-10-09T07:03:37;14.40;99.90
27791;DHT22;15172;48.218;-1.758;2023-10-09T07:06:18;14.40;99.90
27791;DHT22;15172;48.218;-1.758;2023-10-09T07:08:53;14.50;99.90
27791;DHT22;15172;48.218;-1.758;2023-10-09T07:11:38;14.60;99.90
27791;DHT22;15172;48.218;-1.758;2023-10-09T07:14:12;14.60;99.90
27791;DHT22;15172;48.218;-1.758;2023-10-09T07:17:04;14.60;99.90
27791;DHT22;15172;48.218;-1.758;2023-10-09T07:19:41;14.70;99.90
27791;DHT22;15172;48.218;-1.758;2023-10-09T07:22:11;14.70;99.90
27791;DHT22;15172;48.218;-1.758;2023-10-09T07:24:50;14.70;99.90
27791;DHT22;15172;48.218;-1.758;2023-10-09T07:27:31;14.70;99.90
27791;DHT22;15172;48.218;-1.758;2023-10-09T07:30:14;14.80;99.90
27791;DHT22;15172;48.218;-1.758;2023-10-09T07:33:07;14.70;99.90
27791;DHT22;15172;48.218;-1.758;2023-10-09T07:35:38;14.70;99.90
27791;DHT22;15172;48.218;-1.758;2023-10-09T07:38:17;14.70;99.90
27791;DHT22;15172;48.218;-1.758;2023-10-09T07:40:50;14.80;99.90
27791;DHT22;15172;48.218;-1.758;2023-10-09T07:43:46;14.90;99.90
27791;DHT22;15172;48.218;-1.758;2023-10-09T07:46:16;14.90;99.90
27791;DHT22;15172;48.218;-1.758;2023-10-09T07:49:02;14.90;99.90
27791;DHT22;15172;48.218;-1.758;2023-10-09T07:51:37;15.00;99.90
27791;DHT22;15172;48.218;-1.758;2023-10-09T07:54:03;14.90;99.90
27791;DHT22;15172;48.218;-1.758;2023-10-09T07:56:39;14.90;99.90
27791;DHT22;15172;48.218;-1.758;2023-10-09T07:59:15;15.00;99.90
27791;DHT22;15172;48.218;-1.758;2023-10-09T08:01:50;15.10;99.90
27791;DHT22;15172;48.218;-1.758;2023-10-09T08:04:20;15.10;99.90
27791;DHT22;15172;48.218;-1.758;2023-10-09T08:07:12;15.10;99.90
27791;DHT22;15172;48.218;-1.758;2023-10-09T08:10:01;15.10;99.90
27791;DHT22;15172;48.218;-1.758;2023-10-09T08:12:45;15.10;99.90
27791;DHT22;15172;48.218;-1.758;2023-10-09T08:15:23;15.10;99.90
27791;DHT22;15172;48.218;-1.758;2023-10-09T08:18:00;15.20;99.90
27791;DHT22;15172;48.218;-1.758;2023-10-09T08:20:30;15.20;99.90
27791;DHT22;15172;48.218;-1.758;2023-10-09T08:26:37;15.30;99.90
27791;DHT22;15172;48.218;-1.758;2023-10-09T08:29:12;15.30;99.90
27791;DHT22;15172;48.218;-1.758;2023-10-09T08:31:43;15.20;99.90
27791;DHT22;15172;48.218;-1.758;2023-10-09T08:34:12;15.20;99.90
27791;DHT22;15172;48.218;-1.758;2023-10-09T08:36:51;15.30;99.90
27791;DHT22;15172;48.218;-1.758;2023-10-09T08:39:18;15.30;99.90
27791;DHT22;15172;48.218;-1.758;2023-10-09T08:41:54;15.30;99.90
27791;DHT22;15172;48.218;-1.758;2023-10-09T08:44:24;15.30;99.90
27791;DHT22;15172;48.218;-1.758;2023-10-09T08:46:54;15.40;99.90
27791;DHT22;15172;48.218;-1.758;2023-10-09T08:49:20;15.40;99.90
27791;DHT22;15172;48.218;-1.758;2023-10-09T08:51:49;15.50;99.90
27791;DHT22;15172;48.218;-1.758;2023-10-09T08:54:18;15.50;99.90
27791;DHT22;15172;48.218;-1.758;2023-10-09T08:56:45;15.50;99.90
27791;DHT22;15172;48.218;-1.758;2023-10-09T08:59:18;15.50;99.90
27791;DHT22;15172;48.218;-1.758;2023-10-09T09:01:48;15.60;99.90
27791;DHT22;15172;48.218;-1.758;2023-10-09T09:04:37;15.60;99.90
27791;DHT22;15172;48.218;-1.758;2023-10-09T09:07:28;15.70;99.90
27791;DHT22;15172;48.218;-1.758;2023-10-09T09:09:58;15.70;99.90
27791;DHT22;15172;48.218;-1.758;2023-10-09T09:12:29;15.80;99.90
27791;DHT22;15172;48.218;-1.758;2023-10-09T09:15:00;15.80;99.90
27791;DHT22;15172;48.218;-1.758;2023-10-09T09:17:34;15.90;99.90
27791;DHT22;15172;48.218;-1.758;2023-10-09T09:20:22;16.00;99.90
27791;DHT22;15172;48.218;-1.758;2023-10-09T09:22:55;16.10;99.90
27791;DHT22;15172;48.218;-1.758;2023-10-09T09:25:24;16.20;99.90
27791;DHT22;15172;48.218;-1.758;2023-10-09T09:28:04;16.20;99.90
27791;DHT22;15172;48.218;-1.758;2023-10-09T09:30:38;16.30;99.90
27791;DHT22;15172;48.218;-1.758;2023-10-09T09:33:24;16.30;99.90
27791;DHT22;15172;48.218;-1.758;2023-10-09T09:36:03;16.40;99.90
27791;DHT22;15172;48.218;-1.758;2023-10-09T09:38:31;16.50;99.90
27791;DHT22;15172;48.218;-1.758;2023-10-09T09:41:17;16.60;99.90
27791;DHT22;15172;48.218;-1.758;2023-10-09T09:43:56;16.80;99.90
27791;DHT22;15172;48.218;-1.758;2023-10-09T09:46:23;16.90;99.90
27791;DHT22;15172;48.218;-1.758;2023-10-09T09:49:03;16.90;99.90
27791;DHT22;15172;48.218;-1.758;2023-10-09T09:51:31;17.00;99.90
27791;DHT22;15172;48.218;-1.758;2023-10-09T09:53:57;17.10;99.90
27791;DHT22;15172;48.218;-1.758;2023-10-09T09:56:28;17.10;99.90
27791;DHT22;15172;48.218;-1.758;2023-10-09T09:58:57;17.20;99.90
27791;DHT22;15172;48.218;-1.758;2023-10-09T10:01:30;17.30;99.90
27791;DHT22;15172;48.218;-1.758;2023-10-09T10:04:05;17.50;99.90
27791;DHT22;15172;48.218;-1.758;2023-10-09T10:06:34;17.70;99.90
27791;DHT22;15172;48.218;-1.758;2023-10-09T10:09:00;17.70;99.90
27791;DHT22;15172;48.218;-1.758;2023-10-09T10:11:47;17.90;99.90
27791;DHT22;15172;48.218;-1.758;2023-10-09T10:14:53;18.10;99.90
27791;DHT22;15172;48.218;-1.758;2023-10-09T10:17:22;18.20;99.90
27791;DHT22;15172;48.218;-1.758;2023-10-09T10:22:27;18.30;99.90
27791;DHT22;15172;48.218;-1.758;2023-10-09T10:24:53;18.30;99.90
27791;DHT22;15172;48.218;-1.758;2023-10-09T10:27:24;18.40;99.90
27791;DHT22;15172;48.218;-1.758;2023-10-09T10:33:00;18.60;99.90
27791;DHT22;15172;48.218;-1.758;2023-10-09T10:35:36;18.80;99.90
27791;DHT22;15172;48.218;-1.758;2023-10-09T10:38:30;18.80;99.90
27791;DHT22;15172;48.218;-1.758;2023-10-09T10:41:28;18.90;99.90
27791;DHT22;15172;48.218;-1.758;2023-10-09T10:43:56;19.00;99.90
27791;DHT22;15172;48.218;-1.758;2023-10-09T10:46:26;19.00;99.90
27791;DHT22;15172;48.218;-1.758;2023-10-09T10:49:07;19.10;99.90
27791;DHT22;15172;48.218;-1.758;2023-10-09T10:51:50;19.20;99.90
27791;DHT22;15172;48.218;-1.758;2023-10-09T10:54:26;19.30;99.90
27791;DHT22;15172;48.218;-1.758;2023-10-09T10:56:59;19.40;99.90
27791;DHT22;15172;48.218;-1.758;2023-10-09T10:59:30;19.40;99.90
27791;DHT22;15172;48.218;-1.758;2023-10-09T11:02:09;19.50;99.90
27791;DHT22;15172;48.218;-1.758;2023-10-09T11:04:35;19.50;99.90
27791;DHT22;15172;48.218;-1.758;2023-10-09T11:07:03;19.50;99.90
27791;DHT22;15172;48.218;-1.758;2023-10-09T11:09:49;19.60;99.90
27791;DHT22;15172;48.218;-1.758;2023-10-09T11:12:27;19.60;99.90
27791;DHT22;15172;48.218;-1.758;2023-10-09T11:15:05;19.70;99.90
27791;DHT22;15172;48.218;-1.758;2023-10-09T11:17:37;19.70;99.90
27791;DHT22;15172;48.218;-1.758;2023-10-09T11:20:05;19.70;99.90
27791;DHT22;15172;48.218;-1.758;2023-10-09T11:22:50;19.70;99.90
27791;DHT22;15172;48.218;-1.758;2023-10-09T11:25:40;19.80;99.90
27791;DHT22;15172;48.218;-1.758;2023-10-09T11:28:20;19.80;99.90
27791;DHT22;15172;48.218;-1.758;2023-10-09T11:31:09;19.90;99.90
27791;DHT22;15172;48.218;-1.758;2023-10-09T11:33:46;19.80;99.90
27791;DHT22;15172;48.218;-1.758;2023-10-09T11:36:17;19.90;99.90
27791;DHT22;15172;48.218;-1.758;2023-10-09T11:38:47;19.90;99.90
27791;DHT22;15172;48.218;-1.758;2023-10-09T11:41:15;19.90;99.90
27791;DHT22;15172;48.218;-1.758;2023-10-09T11:43:51;20.00;99.90
27791;DHT22;15172;48.218;-1.758;2023-10-09T11:46:18;20.00;99.90
27791;DHT22;15172;48.218;-1.758;2023-10-09T11:49:07;20.10;99.90
27791;DHT22;15172;48.218;-1.758;2023-10-09T11:51:44;20.20;99.90
27791;DHT22;15172;48.218;-1.758;2023-10-09T11:54:31;20.30;99.90
27791;DHT22;15172;48.218;-1.758;2023-10-09T11:56:57;20.30;99.90
27791;DHT22;15172;48.218;-1.758;2023-10-09T11:59:26;20.30;99.90
27791;DHT22;15172;48.218;-1.758;2023-10-09T12:01:53;20.20;99.90
27791;DHT22;15172;48.218;-1.758;2023-10-09T12:04:20;20.30;99.90
27791;DHT22;15172;48.218;-1.758;2023-10-09T12:06:45;20.40;99.90
27791;DHT22;15172;48.218;-1.758;2023-10-09T12:09:11;20.50;99.90
27791;DHT22;15172;48.218;-1.758;2023-10-09T12:11:49;20.50;99.90
27791;DHT22;15172;48.218;-1.758;2023-10-09T12:14:18;20.60;99.90
27791;DHT22;15172;48.218;-1.758;2023-10-09T12:16:49;20.70;99.90
27791;DHT22;15172;48.218;-1.758;2023-10-09T12:19:15;20.90;99.90
27791;DHT22;15172;48.218;-1.758;2023-10-09T12:21:41;21.00;99.90
27791;DHT22;15172;48.218;-1.758;2023-10-09T12:24:08;21.10;99.90
27791;DHT22;15172;48.218;-1.758;2023-10-09T12:26:38;21.10;99.90
27791;DHT22;15172;48.218;-1.758;2023-10-09T12:29:06;21.10;99.90
27791;DHT22;15172;48.218;-1.758;2023-10-09T12:31:36;21.20;99.90
27791;DHT22;15172;48.218;-1.758;2023-10-09T12:34:02;21.30;99.90
27791;DHT22;15172;48.218;-1.758;2023-10-09T12:36:28;21.30;99.90
27791;DHT22;15172;48.218;-1.758;2023-10-09T12:38:54;21.40;99.90
27791;DHT22;15172;48.218;-1.758;2023-10-09T12:41:24;21.40;99.90
27791;DHT22;15172;48.218;-1.758;2023-10-09T12:43:54;21.50;99.90
27791;DHT22;15172;48.218;-1.758;2023-10-09T12:46:20;21.50;99.90
27791;DHT22;15172;48.218;-1.758;2023-10-09T12:48:54;21.40;99.90
27791;DHT22;15172;48.218;-1.758;2023-10-09T12:51:20;21.40;99.90
27791;DHT22;15172;48.218;-1.758;2023-10-09T12:53:51;21.40;99.90
27791;DHT22;15172;48.218;-1.758;2023-10-09T12:56:25;21.50;99.90
27791;DHT22;15172;48.218;-1.758;2023-10-09T12:59:03;21.50;99.90
27791;DHT22;15172;48.218;-1.758;2023-10-09T13:01:33;21.50;99.90
27791;DHT22;15172;48.218;-1.758;2023-10-09T13:04:08;21.50;99.90
27791;DHT22;15172;48.218;-1.758;2023-10-09T13:06:40;21.50;99.90
27791;DHT22;15172;48.218;-1.758;2023-10-09T13:09:10;21.70;99.90
27791;DHT22;15172;48.218;-1.758;2023-10-09T13:11:36;21.70;99.90
27791;DHT22;15172;48.218;-1.758;2023-10-09T13:14:03;21.70;99.90
27791;DHT22;15172;48.218;-1.758;2023-10-09T13:16:37;21.70;99.90
27791;DHT22;15172;48.218;-1.758;2023-10-09T13:19:02;21.70;99.90
27791;DHT22;15172;48.218;-1.758;2023-10-09T13:21:35;21.70;99.90
27791;DHT22;15172;48.218;-1.758;2023-10-09T13:24:04;21.80;99.90
27791;DHT22;15172;48.218;-1.758;2023-10-09T13:26:30;21.70;99.90
27791;DHT22;15172;48.218;-1.758;2023-10-09T13:28:57;21.70;99.90
27791;DHT22;15172;48.218;-1.758;2023-10-09T13:31:24;21.70;99.90
27791;DHT22;15172;48.218;-1.758;2023-10-09T13:33:54;21.70;99.90
27791;DHT22;15172;48.218;-1.758;2023-10-09T13:36:21;21.80;99.90
27791;DHT22;15172;48.218;-1.758;2023-10-09T13:38:54;21.90;99.90
27791;DHT22;15172;48.218;-1.758;2023-10-09T13:41:23;22.00;99.90
27791;DHT22;15172;48.218;-1.758;2023-10-09T13:43:55;22.10;99.90
27791;DHT22;15172;48.218;-1.758;2023-10-09T13:46:22;22.00;99.90
27791;DHT22;15172;48.218;-1.758;2023-10-09T13:48:48;22.00;99.90
27791;DHT22;15172;48.218;-1.758;2023-10-09T13:51:15;22.00;99.90
27791;DHT22;15172;48.218;-1.758;2023-10-09T13:53:44;22.10;99.90
27791;DHT22;15172;48.218;-1.758;2023-10-09T13:56:18;22.00;99.90
27791;DHT22;15172;48.218;-1.758;2023-10-09T13:58:50;22.00;99.90
27791;DHT22;15172;48.218;-1.758;2023-10-09T14:01:21;22.00;99.90
27791;DHT22;15172;48.218;-1.758;2023-10-09T14:03:59;22.00;99.90
27791;DHT22;15172;48.218;-1.758;2023-10-09T14:06:26;22.00;99.90
27791;DHT22;15172;48.218;-1.758;2023-10-09T14:09:02;22.10;99.90
27791;DHT22;15172;48.218;-1.758;2023-10-09T14:11:31;22.10;99.90
27791;DHT22;15172;48.218;-1.758;2023-10-09T14:13:57;22.10;99.90
27791;DHT22;15172;48.218;-1.758;2023-10-09T14:16:26;22.10;99.90
27791;DHT22;15172;48.218;-1.758;2023-10-09T14:18:58;22.10;99.90
27791;DHT22;15172;48.218;-1.758;2023-10-09T14:21:27;22.10;99.90
27791;DHT22;15172;48.218;-1.758;2023-10-09T14:23:59;22.10;99.90
27791;DHT22;15172;48.218;-1.758;2023-10-09T14:26:28;22.20;99.90
27791;DHT22;15172;48.218;-1.758;2023-10-09T14:28:55;22.10;99.90
27791;DHT22;15172;48.218;-1.758;2023-10-09T14:31:26;22.20;99.90
27791;DHT22;15172;48.218;-1.758;2023-10-09T14:33:56;22.20;99.90
27791;DHT22;15172;48.218;-1.758;2023-10-09T14:36:22;22.20;99.90
27791;DHT22;15172;48.218;-1.758;2023-10-09T14:38:51;22.10;99.90
27791;DHT22;15172;48.218;-1.758;2023-10-09T14:41:22;22.10;99.90
27791;DHT22;15172;48.218;-1.758;2023-10-09T14:43:52;22.20;99.90
27791;DHT22;15172;48.218;-1.758;2023-10-09T14:46:18;22.20;99.90
27791;DHT22;15172;48.218;-1.758;2023-10-09T14:48:55;22.10;99.90
27791;DHT22;15172;48.218;-1.758;2023-10-09T14:51:24;22.10;99.90
27791;DHT22;15172;48.218;-1.758;2023-10-09T14:53:58;22.10;99.90
27791;DHT22;15172;48.218;-1.758;2023-10-09T14:56:25;22.20;99.90
27791;DHT22;15172;48.218;-1.758;2023-10-09T14:58:57;22.20;99.90
27791;DHT22;15172;48.218;-1.758;2023-10-09T15:01:27;22.20;99.90
27791;DHT22;15172;48.218;-1.758;2023-10-09T15:03:57;22.20;99.90
27791;DHT22;15172;48.218;-1.758;2023-10-09T15:06:28;22.20;99.90
27791;DHT22;15172;48.218;-1.758;2023-10-09T15:08:56;22.20;99.90
27791;DHT22;15172;48.218;-1.758;2023-10-09T15:11:22;22.20;99.90
27791;DHT22;15172;48.218;-1.758;2023-10-09T15:13:50;22.20;99.90
27791;DHT22;15172;48.218;-1.758;2023-10-09T15:16:17;22.20;99.90
27791;DHT22;15172;48.218;-1.758;2023-10-09T15:18:43;22.20;99.90
27791;DHT22;15172;48.218;-1.758;2023-10-09T15:21:09;22.20;99.90
27791;DHT22;15172;48.218;-1.758;2023-10-09T15:23:34;22.20;99.90
27791;DHT22;15172;48.218;-1.758;2023-10-09T15:26:02;22.20;99.90
27791;DHT22;15172;48.218;-1.758;2023-10-09T15:28:28;22.20;99.90
27791;DHT22;15172;48.218;-1.758;2023-10-09T15:30:58;22.20;99.90
27791;DHT22;15172;48.218;-1.758;2023-10-09T15:33:24;22.10;99.90
27791;DHT22;15172;48.218;-1.758;2023-10-09T15:35:56;22.20;99.90
27791;DHT22;15172;48.218;-1.758;2023-10-09T15:38:22;22.10;99.90
27791;DHT22;15172;48.218;-1.758;2023-10-09T15:40:49;22.20;99.90
27791;DHT22;15172;48.218;-1.758;2023-10-09T15:43:14;22.10;99.90
27791;DHT22;15172;48.218;-1.758;2023-10-09T15:45:45;22.10;99.90
27791;DHT22;15172;48.218;-1.758;2023-10-09T15:48:14;22.10;99.90
27791;DHT22;15172;48.218;-1.758;2023-10-09T15:50:45;22.20;99.90
27791;DHT22;15172;48.218;-1.758;2023-10-09T15:53:17;22.10;99.90
27791;DHT22;15172;48.218;-1.758;2023-10-09T15:55:44;22.10;99.90
27791;DHT22;15172;48.218;-1.758;2023-10-09T15:58:09;22.00;99.90
27791;DHT22;15172;48.218;-1.758;2023-10-09T16:00:35;22.00;99.90
27791;DHT22;15172;48.218;-1.758;2023-10-09T16:03:03;22.00;99.90